地図

経路データ

SID SEASON NUMBER BASIN SUBBASIN NAME ISO_TIME NATURE LAT LON WMO_WIND WMO_PRES WMO_AGENCY TRACK_TYPE DIST2LAND LANDFALL IFLAG USA_AGENCY USA_ATCF_ID USA_LAT USA_LON USA_RECORD USA_STATUS USA_WIND USA_PRES USA_SSHS USA_R34_NE USA_R34_SE USA_R34_SW USA_R34_NW USA_R50_NE USA_R50_SE USA_R50_SW USA_R50_NW USA_R64_NE USA_R64_SE USA_R64_SW USA_R64_NW USA_POCI USA_ROCI USA_RMW USA_EYE TOKYO_LAT TOKYO_LON TOKYO_GRADE TOKYO_WIND TOKYO_PRES TOKYO_R50_DIR TOKYO_R50_LONG TOKYO_R50_SHORT TOKYO_R30_DIR TOKYO_R30_LONG TOKYO_R30_SHORT TOKYO_LAND CMA_LAT CMA_LON CMA_CAT CMA_WIND CMA_PRES HKO_LAT HKO_LON HKO_CAT HKO_WIND HKO_PRES NEWDELHI_LAT NEWDELHI_LON NEWDELHI_GRADE NEWDELHI_WIND NEWDELHI_PRES NEWDELHI_CI NEWDELHI_DP NEWDELHI_POCI REUNION_LAT REUNION_LON REUNION_TYPE REUNION_WIND REUNION_PRES REUNION_TNUM REUNION_CI REUNION_RMW REUNION_R34_NE REUNION_R34_SE REUNION_R34_SW REUNION_R34_NW REUNION_R50_NE REUNION_R50_SE REUNION_R50_SW REUNION_R50_NW REUNION_R64_NE REUNION_R64_SE REUNION_R64_SW REUNION_R64_NW BOM_LAT BOM_LON BOM_TYPE BOM_WIND BOM_PRES BOM_TNUM BOM_CI BOM_RMW BOM_R34_NE BOM_R34_SE BOM_R34_SW BOM_R34_NW BOM_R50_NE BOM_R50_SE BOM_R50_SW BOM_R50_NW BOM_R64_NE BOM_R64_SE BOM_R64_SW BOM_R64_NW BOM_ROCI BOM_POCI BOM_EYE BOM_POS_METHOD BOM_PRES_METHOD NADI_LAT NADI_LON NADI_CAT NADI_WIND NADI_PRES WELLINGTON_LAT WELLINGTON_LON WELLINGTON_WIND WELLINGTON_PRES DS824_LAT DS824_LON DS824_STAGE DS824_WIND DS824_PRES TD9636_LAT TD9636_LON TD9636_STAGE TD9636_WIND TD9636_PRES TD9635_LAT TD9635_LON TD9635_WIND TD9635_PRES TD9635_ROCI NEUMANN_LAT NEUMANN_LON NEUMANN_CLASS NEUMANN_WIND NEUMANN_PRES MLC_LAT MLC_LON MLC_CLASS MLC_WIND MLC_PRES USA_GUST BOM_GUST BOM_GUST_PER REUNION_GUST REUNION_GUST_PER USA_SEAHGT USA_SEARAD_NE USA_SEARAD_SE USA_SEARAD_SW USA_SEARAD_NW STORM_SPEED STORM_DIR
2002129N08096 2002 23 NI BB NOT_NAMED 2002-05-09 06:00:00 TS 8.40000 95.5000 main 308 308 O_____________ jtwc_io IO022002 8.40000 95.5000 TD 25 1002 -1 1006 125 45 7 316
2002129N08096 2002 23 NI BB NOT_NAMED 2002-05-09 09:00:00 TS 8.65005 95.2601 main 330 330 P_____________ IO022002 8.65005 95.2601 TD 27 1001 -1 1006 115 42 6 322
2002129N08096 2002 23 NI BB NOT_NAMED 2002-05-09 12:00:00 TS 8.90000 95.1000 main 351 351 O_____________ jtwc_io IO022002 8.90000 95.1000 TD 30 1000 -1 1006 105 40 5 339
2002129N08096 2002 23 NI BB NOT_NAMED 2002-05-09 15:00:00 TS 9.14998 95.0699 main 352 352 P_____________ IO022002 9.14998 95.0699 TD 30 1000 -1 1006 105 40 5 2
2002129N08096 2002 23 NI BB NOT_NAMED 2002-05-09 18:00:00 TS 9.40000 95.1000 main 356 356 O_____________ jtwc_io IO022002 9.40000 95.1000 TD 30 1000 -1 1006 105 40 5 1
2002129N08096 2002 23 NI BB NOT_NAMED 2002-05-09 21:00:00 TS 9.64250 95.0850 main 360 360 P_____________ IO022002 9.64250 95.0850 TD 30 1000 -1 1006 105 40 5 2
2002129N08096 2002 23 NI BB NOT_NAMED 2002-05-10 00:00:00 TS 9.90000 95.1000 main 368 361 O_____________ jtwc_io IO022002 9.90000 95.1000 TD 30 1000 -1 1006 105 40 6 10
2002129N08096 2002 23 NI BB NOT_NAMED 2002-05-10 03:00:00 TS 10.2000 95.1850 main 361 350 P_____________ IO022002 10.2000 95.1850 TD 30 1000 -1 1006 110 40 6 18
2002129N08096 2002 23 NI BB NOT_NAMED 2002-05-10 06:00:00 TS 10.5000 95.3000 main 350 339 O_____________ jtwc_io IO022002 10.5000 95.3000 TD 30 1000 -1 1006 115 40 6 22
2002129N08096 2002 23 NI BB NOT_NAMED 2002-05-10 09:00:00 TS 10.7575 95.4150 main 339 329 P_____________ IO022002 10.7575 95.4150 TD 32 998 -1 1005 115 40 5 22
2002129N08096 2002 23 NI BB NOT_NAMED 2002-05-10 12:00:00 TS 11.0000 95.5000 main 330 330 O_____________ jtwc_io IO022002 11.0000 95.5000 TS 35 997 0 1005 115 40 5 12
2002129N08096 2002 23 NI BB NOT_NAMED 2002-05-10 15:00:00 TS 11.2425 95.5225 main 334 329 P_____________ IO022002 11.2425 95.5225 TS 35 997 0 1005 115 40 5 2
2002129N08096 2002 23 NI BB NOT_NAMED 2002-05-10 18:00:00 TS 11.5000 95.5000 main 329 326 O_____________ jtwc_io IO022002 11.5000 95.5000 TS 35 997 0 1005 115 40 5 353
2002129N08096 2002 23 NI BB NOT_NAMED 2002-05-10 21:00:00 TS 11.7775 95.4500 main 326 326 P_____________ IO022002 11.7775 95.4500 TS 35 997 0 1005 115 40 6 351
2002129N08096 2002 23 NI BB NOT_NAMED 2002-05-11 00:00:00 TS 12.1000 95.4000 main 337 317 O_____________ jtwc_io IO022002 12.1000 95.4000 TS 35 997 0 1005 115 40 6 5
2002129N08096 2002 23 NI BB NOT_NAMED 2002-05-11 03:00:00 TS 12.3700 95.5080 25 1006 newdelhi main 312 261 P___O_________ IO022002 12.4625 95.3850 TS 40 994 0 1005 117 30 12.0000 96.0000 D 25 1006 1.50000 4 9 23
2002129N08096 2002 23 NI BB NOT_NAMED 2002-05-11 06:00:00 TS 12.9333 95.7667 25 1006 newdelhi main 261 237 O___O_________ jtwc_io IO022002 12.9000 95.4000 TS 45 991 0 40 40 40 40 1005 120 20 13.0000 96.5000 D 25 1006 1.50000 4 13 19
2002129N08096 2002 23 NI BB NOT_NAMED 2002-05-11 09:00:00 TS 13.5936 95.9314 main 237 176 P___P_________ IO022002 13.4125 95.4276 TS 45 991 0 40 40 40 40 1005 120 20 13.8351 96.6030 D 27 1005 5 13 10
2002129N08096 2002 23 NI BB NOT_NAMED 2002-05-11 12:00:00 TS 14.2500 96.0000 30 1004 newdelhi main 165 119 O___O_________ jtwc_io IO022002 14.0000 95.5000 TS 45 991 0 40 40 40 40 1005 120 20 14.5000 96.5000 DD 30 1004 2.00000 6 13 6
2002129N08096 2002 23 NI BB NOT_NAMED 2002-05-11 15:00:00 TS 14.8475 96.0638 main 119 72 P___P_________ IO022002 14.6200 95.6276 TS 45 991 0 45 45 45 45 1005 120 20 15.0750 96.5000 DD 30 1004 6 12 7
2002129N08096 2002 23 NI BB NOT_NAMED 2002-05-11 18:00:00 TS 15.4000 96.1500 30 1004 newdelhi main 82 54 O___O_________ jtwc_io IO022002 15.3000 95.8000 TS 45 991 0 50 50 50 50 1005 120 20 15.5000 96.5000 DD 30 1004 2.00000 6 10 6
2002129N08096 2002 23 NI BB NOT_NAMED 2002-05-11 21:00:00 TS 15.8179 96.1666 main 54 0 P___P_________ IO022002 16.0350 95.9925 TS 40 994 0 50 50 50 50 1005 120 20 15.5283 96.3988 DD 30 1004 6 12 7
2002129N08096 2002 23 NI BB NOT_NAMED 2002-05-12 00:00:00 TS 16.5333 96.3000 30 1004 newdelhi main 10 0 O___O_________ jtwc_io IO022002 16.8000 96.2000 TS 35 997 0 50 50 50 50 1005 120 20 16.0000 96.5000 DD 30 1004 2.00000 6 18 10
2002129N08096 2002 23 NI BB NOT_NAMED 2002-05-12 03:00:00 TS 17.5759 96.4962 30 1004 newdelhi main 0 0 P___O_________ IO022002 17.5948 96.3703 TS 30 999 -1 17.5000 97.0000 DD 30 1004 2.00000 6 18 9
2002129N08096 2002 23 NI BB NOT_NAMED 2002-05-12 06:00:00 TS 18.3000 96.6000 main 0 0 O_____________ jtwc_io IO022002 18.3000 96.6000 TD 25 1002 -1 13 20
2002129N08096 2002 23 NI BB NOT_NAMED 2002-05-12 09:00:00 TS 18.8103 96.9596 main 0 0 P_____________ IO022002 18.8103 96.9596 TD 20 1004 -1 12 40
2002129N08096 2002 23 NI BB NOT_NAMED 2002-05-12 12:00:00 TS 19.2000 97.4000 main 0 O_____________ jtwc_io IO022002 19.2000 97.4000 TD 15 1006 -1 11 47

IBTrACS Databaseについて

本データベースは、米国NOAAが公開する1842年以降の世界の熱帯低気圧のベストトラックデータアーカイブInternational Best Track Archive for Climate Stewardship (IBTrACS)を、ウェブで閲覧しやすい形式に変換したものです。

最終更新日:2021-11-26